createdAt,value
2022-11-12T00:01:35.189Z,103250.78
2022-11-12T00:04:54.885Z,103244.75
2022-11-12T00:08:15.067Z,103254.19
2022-11-12T00:11:35.166Z,103249.91
2022-11-12T00:14:55.124Z,103253.28
2022-11-12T00:18:14.794Z,103254.16
2022-11-12T00:21:34.573Z,103250.72
2022-11-12T00:24:54.469Z,103255.00
2022-11-12T00:28:14.487Z,103247.25
2022-11-12T00:31:34.344Z,103240.41
2022-11-12T00:34:54.166Z,103239.59
2022-11-12T00:38:14.005Z,103228.41
2022-11-12T00:41:33.847Z,103237.03
2022-11-12T00:44:53.627Z,103235.31
2022-11-12T00:48:13.443Z,103236.16
2022-11-12T00:51:33.580Z,103243.00
2022-11-12T00:54:53.398Z,103242.16
2022-11-12T00:58:13.284Z,103236.13
2022-11-12T01:01:34.385Z,103238.69
2022-11-12T01:04:54.304Z,103247.31
2022-11-12T01:08:14.129Z,103236.16
2022-11-12T01:11:34.250Z,103234.44
2022-11-12T01:14:54.367Z,103238.72
2022-11-12T01:18:14.291Z,103236.16
2022-11-12T01:21:38.759Z,103232.75
2022-11-12T01:24:58.786Z,103236.16
2022-11-12T01:28:18.527Z,103229.28
2022-11-12T01:31:38.871Z,103239.59
2022-11-12T01:34:58.718Z,103230.97
2022-11-12T01:38:18.570Z,103241.28
2022-11-12T01:41:39.919Z,103228.41
2022-11-12T01:44:59.679Z,103234.44
2022-11-12T01:48:28.718Z,103236.13
2022-11-12T01:51:51.029Z,103242.09
2022-11-12T01:55:16.282Z,103235.22
2022-11-12T01:58:38.326Z,103238.66
2022-11-12T02:01:58.807Z,103238.66
2022-11-12T02:05:20.935Z,103230.91
2022-11-12T02:08:41.269Z,103232.59
2022-11-12T02:12:01.087Z,103228.31
2022-11-12T02:15:21.100Z,103218.91
2022-11-12T02:18:41.130Z,103226.66
2022-11-12T02:22:00.980Z,103224.97
2022-11-12T02:25:23.997Z,103219.94
2022-11-12T02:28:44.039Z,103214.00
2022-11-12T02:32:03.888Z,103207.22
2022-11-12T02:35:24.018Z,103220.09
2022-11-12T02:38:43.890Z,103226.97
2022-11-12T02:42:04.030Z,103224.41
2022-11-12T02:45:24.347Z,103223.56
2022-11-12T02:48:44.736Z,103222.75
2022-11-12T02:52:04.700Z,103229.59
2022-11-12T02:55:24.735Z,103214.19
2022-11-12T02:58:44.689Z,103220.16
2022-11-12T03:02:04.516Z,103221.88
2022-11-12T03:05:26.084Z,103230.44
2022-11-12T03:08:46.076Z,103231.28
2022-11-12T03:12:06.301Z,103232.97
2022-11-12T03:15:29.712Z,103232.09
2022-11-12T03:18:49.591Z,103234.66
2022-11-12T03:22:09.391Z,103245.75
2022-11-12T03:25:29.800Z,103238.91
2022-11-12T03:28:51.277Z,103250.84
2022-11-12T03:32:11.109Z,103233.72
2022-11-12T03:35:32.398Z,103254.25
2022-11-12T03:38:52.714Z,103247.41
2022-11-12T03:42:12.690Z,103240.59
2022-11-12T03:45:32.564Z,103236.28
2022-11-12T03:48:52.288Z,103240.53
2022-11-12T03:52:12.208Z,103247.41
2022-11-12T03:55:32.114Z,103242.22
2022-11-12T03:58:51.871Z,103248.13
2022-11-12T04:02:11.695Z,103247.22
2022-11-12T04:05:31.416Z,103235.16
2022-11-12T04:08:51.368Z,103271.81
2022-11-12T04:12:11.245Z,103253.84
2022-11-12T04:15:31.171Z,103253.78
2022-11-12T04:18:53.791Z,103260.59
2022-11-12T04:22:13.604Z,103260.50
2022-11-12T04:25:33.308Z,103269.88
2022-11-12T04:28:53.238Z,103258.75
2022-11-12T04:32:13.401Z,103250.16
2022-11-12T04:35:33.625Z,103257.75
2022-11-12T04:38:53.482Z,103271.44
2022-11-12T04:42:13.310Z,103250.88
2022-11-12T04:45:34.030Z,103258.63
2022-11-12T04:48:54.238Z,103255.25
2022-11-12T04:52:14.274Z,103255.16
2022-11-12T04:55:34.394Z,103260.19
2022-11-12T04:58:54.206Z,103261.91
2022-11-12T05:02:15.554Z,103251.66
2022-11-12T05:05:35.661Z,103267.84
2022-11-12T05:08:55.942Z,103274.63
2022-11-12T05:12:15.753Z,103261.75
2022-11-12T05:15:35.582Z,103266.84
2022-11-12T05:18:55.335Z,103269.41
2022-11-12T05:22:40.241Z,103260.84
2022-11-12T05:25:55.329Z,103271.09
2022-11-12T05:29:15.299Z,103275.38
2022-11-12T05:32:35.160Z,103266.84
2022-11-12T05:35:57.898Z,103254.88
2022-11-12T05:39:17.572Z,103277.09
2022-11-12T05:42:38.200Z,103279.72
2022-11-12T05:45:58.252Z,103264.34
2022-11-12T05:49:18.174Z,103248.97
2022-11-12T05:52:38.225Z,103265.19
2022-11-12T05:56:06.471Z,103280.50
2022-11-12T05:59:26.571Z,103275.25
2022-11-12T06:02:46.509Z,103272.69
2022-11-12T06:06:07.036Z,103276.00
2022-11-12T06:09:27.132Z,103273.28
2022-11-12T06:12:47.027Z,103283.28
2022-11-12T06:16:07.452Z,103283.19
2022-11-12T06:19:27.337Z,103281.31
2022-11-12T06:22:47.070Z,103285.56
2022-11-12T06:26:07.048Z,103291.50
2022-11-12T06:29:26.897Z,103298.28
2022-11-12T06:32:47.968Z,103300.78
2022-11-12T06:36:08.642Z,103300.66
2022-11-12T06:39:28.332Z,103300.59
2022-11-12T06:42:48.341Z,103309.09
2022-11-12T06:46:15.372Z,103315.81
2022-11-12T06:49:35.469Z,103297.84
2022-11-12T06:52:59.162Z,103293.69
2022-11-12T06:56:19.077Z,103301.31
2022-11-12T06:59:38.935Z,103314.00
2022-11-12T07:02:58.802Z,103320.78
2022-11-12T07:06:20.127Z,103315.66
2022-11-12T07:09:39.861Z,103317.44
2022-11-12T07:12:59.611Z,103325.22
2022-11-12T07:16:19.536Z,103330.38
2022-11-12T07:19:39.377Z,103338.88
2022-11-12T07:23:02.228Z,103326.78
2022-11-12T07:26:25.004Z,103330.06
2022-11-12T07:29:48.928Z,103334.28
2022-11-12T07:33:08.847Z,103335.03
2022-11-12T07:36:28.571Z,103342.00
2022-11-12T07:39:48.345Z,103342.91
2022-11-12T07:43:08.140Z,103346.25
2022-11-12T07:46:28.168Z,103339.56
2022-11-12T07:49:48.178Z,103343.91
2022-11-12T07:53:08.053Z,103349.22
2022-11-12T07:56:28.963Z,103332.44
2022-11-12T07:59:48.738Z,103338.63
2022-11-12T08:03:08.575Z,103348.13
2022-11-12T08:06:29.857Z,103349.09
2022-11-12T08:09:49.913Z,103356.06
2022-11-12T08:13:09.790Z,103355.38
2022-11-12T08:16:30.086Z,103348.72
2022-11-12T08:19:49.845Z,103336.03
2022-11-12T08:23:10.194Z,103346.31
2022-11-12T08:26:30.148Z,103348.16
2022-11-12T08:29:49.843Z,103344.06
2022-11-12T08:33:09.719Z,103347.56
2022-11-12T08:36:30.115Z,103334.94
2022-11-12T08:39:50.165Z,103342.66
2022-11-12T08:43:10.599Z,103340.22
2022-11-12T08:46:30.756Z,103348.88
2022-11-12T08:49:50.568Z,103352.47
2022-11-12T08:53:13.790Z,103345.78
2022-11-12T08:56:34.044Z,103352.72
2022-11-12T08:59:53.984Z,103356.28
2022-11-12T09:03:16.236Z,103354.66
2022-11-12T09:06:36.091Z,103363.31
2022-11-12T09:09:55.901Z,103362.47
2022-11-12T09:13:16.045Z,103359.03
2022-11-12T09:16:36.097Z,103370.16
2022-11-12T09:19:55.986Z,103359.00
2022-11-12T09:23:16.713Z,103359.75
2022-11-12T09:26:36.499Z,103370.00
2022-11-12T09:29:56.326Z,103367.34
2022-11-12T09:33:24.630Z,103350.94
2022-11-12T09:36:44.738Z,103355.16
2022-11-12T09:40:15.697Z,103356.91
2022-11-12T09:43:51.118Z,103359.31
2022-11-12T09:47:20.426Z,103357.53
2022-11-12T09:51:10.498Z,103355.69
2022-11-12T09:54:33.022Z,103342.47
2022-11-12T09:57:52.783Z,103355.22
2022-11-12T10:01:16.924Z,103351.00
2022-11-12T10:05:15.153Z,103348.28
2022-11-12T10:08:45.578Z,103361.09
2022-11-12T10:12:23.699Z,103363.78
2022-11-12T10:15:53.694Z,103360.03
2022-11-12T10:19:25.558Z,103370.22
2022-11-12T10:23:22.315Z,103371.03
2022-11-12T10:26:42.349Z,103363.00
2022-11-12T10:30:06.875Z,103378.38
2022-11-12T10:33:31.380Z,103379.19
2022-11-12T10:36:55.693Z,103364.31
2022-11-12T10:40:21.822Z,103364.13
2022-11-12T10:43:53.536Z,103371.59
2022-11-12T10:47:25.643Z,103374.16
2022-11-12T10:50:45.396Z,103358.66
2022-11-12T10:54:26.721Z,103357.63
2022-11-12T10:57:46.421Z,103359.25
2022-11-12T11:01:16.389Z,103359.69
2022-11-12T11:04:37.686Z,103364.47
2022-11-12T11:07:57.757Z,103362.22
2022-11-12T11:11:25.255Z,103351.97
2022-11-12T11:14:45.332Z,103352.69
2022-11-12T11:18:05.085Z,103356.88
2022-11-12T11:21:44.305Z,103352.25
2022-11-12T11:25:14.866Z,103333.91
2022-11-12T11:28:50.633Z,103346.31
2022-11-12T11:32:33.253Z,103357.44
2022-11-12T11:36:06.793Z,103359.09
2022-11-12T11:40:01.431Z,103362.50
2022-11-12T11:43:47.938Z,103367.44
2022-11-12T11:47:59.374Z,103358.78
2022-11-12T11:51:34.417Z,103352.41
2022-11-12T11:54:57.298Z,103353.63
2022-11-12T11:58:29.476Z,103352.13
2022-11-12T12:02:11.255Z,103365.31
2022-11-12T12:05:54.783Z,103358.56
2022-11-12T12:09:48.156Z,103343.22
2022-11-12T12:13:27.317Z,103339.91
2022-11-12T12:17:01.674Z,103340.75
2022-11-12T12:20:25.387Z,103340.81
2022-11-12T12:24:16.317Z,103339.13
2022-11-12T12:27:40.769Z,103334.88
2022-11-12T12:31:07.344Z,103333.97
2022-11-12T12:34:35.260Z,103329.72
2022-11-12T12:38:04.984Z,103330.50
2022-11-12T12:41:29.321Z,103321.03
2022-11-12T12:45:02.376Z,103315.84
2022-11-12T12:48:40.553Z,103308.06
2022-11-12T12:52:00.541Z,103309.75
2022-11-12T12:55:48.879Z,103307.16
2022-11-12T12:59:19.803Z,103299.38
2022-11-12T13:02:39.769Z,103305.38
2022-11-12T13:06:07.334Z,103305.31
2022-11-12T13:09:27.237Z,103291.56
2022-11-12T13:13:19.555Z,103283.88
2022-11-12T13:16:51.800Z,103276.09
2022-11-12T13:20:14.583Z,103274.34
2022-11-12T13:23:49.454Z,103276.06
2022-11-12T13:27:09.659Z,103272.56
2022-11-12T13:30:29.603Z,103277.69
2022-11-12T13:33:49.634Z,103286.34
2022-11-12T13:37:19.235Z,103281.22
2022-11-12T13:40:45.604Z,103270.06
2022-11-12T13:44:09.759Z,103270.06
2022-11-12T13:47:31.862Z,103270.06
2022-11-12T13:50:55.731Z,103262.28
2022-11-12T13:54:30.189Z,103270.06
2022-11-12T13:57:55.259Z,103272.69
2022-11-12T14:01:20.671Z,103264.94
2022-11-12T14:04:40.860Z,103267.53
2022-11-12T14:08:31.260Z,103259.81
2022-11-12T14:12:16.289Z,103265.84
2022-11-12T14:15:53.981Z,103264.94
2022-11-12T14:19:24.774Z,103259.75
2022-11-12T14:22:45.785Z,103264.91
2022-11-12T14:26:05.786Z,103259.75
2022-11-12T14:29:28.755Z,103257.16
2022-11-12T14:33:18.046Z,103256.38
2022-11-12T14:36:38.062Z,103266.78
2022-11-12T14:39:58.120Z,103263.38
2022-11-12T14:43:38.709Z,103259.19
2022-11-12T14:46:59.451Z,103264.44
2022-11-12T14:50:43.150Z,103264.50
2022-11-12T14:54:08.657Z,103256.97
2022-11-12T14:57:30.568Z,103267.50
2022-11-12T15:00:53.468Z,103269.34
2022-11-12T15:04:22.759Z,103260.09
2022-11-12T15:08:04.472Z,103262.00
2022-11-12T15:11:27.161Z,103256.09
2022-11-12T15:14:47.028Z,103247.50
2022-11-12T15:18:16.664Z,103259.63
2022-11-12T15:21:36.796Z,103253.75
2022-11-12T15:25:09.027Z,103243.50
2022-11-12T15:28:29.152Z,103236.78
2022-11-12T15:31:52.596Z,103244.59
2022-11-12T15:35:24.773Z,103244.59
2022-11-12T15:38:50.317Z,103240.38
2022-11-12T15:42:37.672Z,103237.00
2022-11-12T15:45:57.991Z,103237.06
2022-11-12T15:49:17.800Z,103237.94
2022-11-12T15:52:37.733Z,103249.13
2022-11-12T15:55:57.603Z,103241.47
2022-11-12T15:59:18.145Z,103252.66
2022-11-12T16:02:38.131Z,103252.69
2022-11-12T16:05:58.037Z,103256.09
2022-11-12T16:09:17.975Z,103258.69
2022-11-12T16:12:37.933Z,103254.38
2022-11-12T16:15:57.883Z,103254.41
2022-11-12T16:19:17.725Z,103256.13
2022-11-12T16:22:37.631Z,103253.56
2022-11-12T16:25:57.756Z,103257.84
2022-11-12T16:29:17.918Z,103256.16
2022-11-12T16:32:37.747Z,103263.84
2022-11-12T16:35:57.510Z,103264.75
2022-11-12T16:39:17.551Z,103271.59
2022-11-12T16:42:37.442Z,103266.44
2022-11-12T16:45:57.903Z,103265.59
2022-11-12T16:49:17.910Z,103260.44
2022-11-12T16:52:37.888Z,103275.88
2022-11-12T16:55:57.652Z,103278.44
2022-11-12T16:59:17.484Z,103272.47
2022-11-12T17:02:43.309Z,103275.00
2022-11-12T17:06:05.440Z,103277.59
2022-11-12T17:09:25.476Z,103268.16
2022-11-12T17:12:48.532Z,103270.75
2022-11-12T17:16:09.224Z,103263.88
2022-11-12T17:19:29.488Z,103264.72
2022-11-12T17:22:49.396Z,103263.03
2022-11-12T17:26:15.049Z,103257.00
2022-11-12T17:29:35.193Z,103255.31
2022-11-12T17:32:55.157Z,103250.19
2022-11-12T17:36:21.620Z,103245.88
2022-11-12T17:39:41.545Z,103240.72
2022-11-12T17:43:01.518Z,103247.56
2022-11-12T17:46:21.365Z,103246.75
2022-11-12T17:49:41.416Z,103245.88
2022-11-12T17:53:01.318Z,103254.44
2022-11-12T17:56:23.014Z,103259.56
2022-11-12T17:59:43.117Z,103250.97
2022-11-12T18:03:02.866Z,103242.44
2022-11-12T18:06:31.309Z,103247.56
2022-11-12T18:09:51.206Z,103239.88
2022-11-12T18:13:10.920Z,103243.28
2022-11-12T18:16:30.779Z,103235.59
2022-11-12T18:19:51.161Z,103231.28
2022-11-12T18:23:11.274Z,103230.41
2022-11-12T18:26:31.793Z,103225.28
2022-11-12T18:29:51.597Z,103225.25
2022-11-12T18:33:11.962Z,103228.66
2022-11-12T18:36:31.794Z,103226.09
2022-11-12T18:39:51.775Z,103229.50
2022-11-12T18:43:11.569Z,103222.66
2022-11-12T18:46:31.455Z,103226.09
2022-11-12T18:49:51.307Z,103221.81
2022-11-12T18:53:11.173Z,103220.94
2022-11-12T18:56:31.162Z,103220.94
2022-11-12T18:59:51.051Z,103220.94
2022-11-12T19:03:11.156Z,103220.03
2022-11-12T19:06:31.812Z,103216.59
2022-11-12T19:09:51.726Z,103213.19
2022-11-12T19:13:11.804Z,103207.16
2022-11-12T19:16:32.068Z,103205.44
2022-11-12T19:19:51.792Z,103205.44
2022-11-12T19:23:11.743Z,103211.41
2022-11-12T19:26:31.657Z,103198.56
2022-11-12T19:29:51.524Z,103199.41
2022-11-12T19:33:11.480Z,103196.00
2022-11-12T19:36:31.340Z,103198.59
2022-11-12T19:39:51.172Z,103202.88
2022-11-12T19:43:11.053Z,103197.75
2022-11-12T19:46:31.002Z,103190.03
2022-11-12T19:49:50.804Z,103180.63
2022-11-12T19:53:10.638Z,103178.06
2022-11-12T19:56:32.965Z,103180.63
2022-11-12T19:59:52.736Z,103173.81
2022-11-12T20:03:12.546Z,103173.75
2022-11-12T20:06:32.489Z,103178.91
2022-11-12T20:09:56.537Z,103176.34
2022-11-12T20:13:19.450Z,103178.91
2022-11-12T20:16:39.321Z,103181.47
2022-11-12T20:19:59.498Z,103184.03
2022-11-12T20:23:19.297Z,103171.16
2022-11-12T20:26:39.178Z,103171.97
2022-11-12T20:29:59.181Z,103170.25
2022-11-12T20:33:18.930Z,103175.34
2022-11-12T20:36:38.662Z,103165.91
2022-11-12T20:39:58.551Z,103165.06
2022-11-12T20:43:18.631Z,103164.16
2022-11-12T20:46:38.510Z,103168.41
2022-11-12T20:49:58.410Z,103170.94
2022-11-12T20:53:18.215Z,103173.44
2022-11-12T20:56:38.179Z,103169.97
2022-11-12T20:59:58.035Z,103169.09
2022-11-12T21:03:17.907Z,103163.97
2022-11-12T21:06:38.058Z,103153.69
2022-11-12T21:09:58.044Z,103154.50
2022-11-12T21:13:17.889Z,103149.31
2022-11-12T21:16:37.976Z,103154.50
2022-11-12T21:19:57.887Z,103150.16
2022-11-12T21:23:17.576Z,103141.63
2022-11-12T21:26:37.548Z,103139.13
2022-11-12T21:29:57.513Z,103141.72
2022-11-12T21:33:17.502Z,103142.59
2022-11-12T21:36:37.535Z,103143.38
2022-11-12T21:39:57.273Z,103139.06
2022-11-12T21:43:17.148Z,103137.31
2022-11-12T21:46:37.200Z,103137.22
2022-11-12T21:49:57.441Z,103138.09
2022-11-12T21:53:17.613Z,103134.69
2022-11-12T21:56:37.317Z,103132.16
2022-11-12T22:00:08.205Z,103127.06
2022-11-12T22:03:37.726Z,103138.97
2022-11-12T22:06:57.755Z,103128.69
2022-11-12T22:10:18.287Z,103128.63
2022-11-12T22:13:38.569Z,103132.00
2022-11-12T22:16:58.650Z,103132.00
2022-11-12T22:20:18.485Z,103133.72
2022-11-12T22:23:38.651Z,103135.38
2022-11-12T22:27:02.684Z,103137.13
2022-11-12T22:30:25.299Z,103132.88
2022-11-12T22:33:45.445Z,103131.16
2022-11-12T22:37:05.299Z,103129.34
2022-11-12T22:40:25.266Z,103121.63
2022-11-12T22:43:53.268Z,103117.41
2022-11-12T22:47:13.521Z,103125.03
2022-11-12T22:50:33.555Z,103131.78
2022-11-12T22:54:01.583Z,103131.78
2022-11-12T22:57:21.704Z,103131.75
2022-11-12T23:00:42.349Z,103130.00
2022-11-12T23:04:05.104Z,103129.09
2022-11-12T23:07:25.179Z,103124.78
2022-11-12T23:10:46.043Z,103118.78
2022-11-12T23:14:06.232Z,103125.59
2022-11-12T23:17:25.954Z,103125.63
2022-11-12T23:20:45.867Z,103122.19
2022-11-12T23:24:06.004Z,103118.75
2022-11-12T23:27:25.977Z,103116.13
2022-11-12T23:30:49.721Z,103117.78
2022-11-12T23:34:10.105Z,103115.19
2022-11-12T23:37:30.249Z,103112.72
2022-11-12T23:40:55.819Z,103115.25
2022-11-12T23:44:15.740Z,103122.97
2022-11-12T23:47:35.710Z,103131.44
2022-11-12T23:51:29.366Z,103122.97
2022-11-12T23:54:49.158Z,103127.19
2022-11-12T23:58:09.375Z,103124.66
